createdAt,value
2024-02-13T00:04:43.601Z,5.75
2024-02-13T00:09:45.897Z,6.00
2024-02-13T00:14:50.069Z,7.22
2024-02-13T00:19:53.952Z,7.03
2024-02-13T00:24:56.188Z,6.40
2024-02-13T00:29:59.180Z,5.40
2024-02-13T00:35:04.288Z,5.90
2024-02-13T00:40:11.829Z,6.50
2024-02-13T00:45:14.131Z,7.03
2024-02-13T00:50:37.017Z,7.32
2024-02-13T00:55:39.291Z,7.03
2024-02-13T01:00:41.461Z,7.50
2024-02-13T01:05:44.618Z,7.90
2024-02-13T01:10:47.284Z,7.57
2024-02-13T01:15:49.783Z,7.85
2024-02-13T01:20:52.150Z,6.97
2024-02-13T01:25:54.446Z,8.48
2024-02-13T01:30:59.804Z,8.75
2024-02-13T01:36:05.390Z,9.70
2024-02-13T01:41:08.339Z,7.43
2024-02-13T01:46:12.704Z,8.15
2024-02-13T01:58:39.936Z,8.75
2024-02-13T02:03:43.019Z,9.18
2024-02-13T02:08:46.919Z,8.75
2024-02-13T02:13:49.368Z,9.20
2024-02-13T02:19:42.514Z,9.25
2024-02-13T02:24:44.879Z,9.38
2024-02-13T02:29:57.660Z,9.73
2024-02-13T02:35:00.525Z,9.13
2024-02-13T02:40:03.125Z,9.45
2024-02-13T02:45:07.876Z,10.43
2024-02-13T02:50:13.443Z,10.23
2024-02-13T02:55:19.264Z,9.82
2024-02-13T03:00:22.613Z,10.07
2024-02-13T03:05:41.985Z,10.10
2024-02-13T03:10:44.511Z,9.93
2024-02-13T03:15:47.557Z,11.85
2024-02-13T03:20:49.803Z,10.20
2024-02-13T03:25:52.066Z,9.13
2024-02-13T03:31:14.231Z,11.05
2024-02-13T03:36:21.138Z,10.70
2024-02-13T03:41:23.390Z,10.60
2024-02-13T03:46:25.688Z,9.90
2024-02-13T03:51:27.912Z,10.30
2024-02-13T03:56:30.108Z,9.95
2024-02-13T04:01:33.116Z,10.07
2024-02-13T04:06:35.415Z,10.10
2024-02-13T04:11:37.857Z,9.50
2024-02-13T04:16:42.807Z,10.45
2024-02-13T04:21:46.156Z,9.50
2024-02-13T04:26:48.459Z,9.50
2024-02-13T04:31:51.228Z,9.00
2024-02-13T04:36:53.592Z,9.88
2024-02-13T04:41:55.934Z,9.57
2024-02-13T04:46:58.265Z,9.15
2024-02-13T04:52:00.636Z,9.00
2024-02-13T04:57:02.973Z,7.78
2024-02-13T05:02:07.262Z,10.65
2024-02-13T05:07:21.545Z,8.13
2024-02-13T05:12:24.347Z,8.75
2024-02-13T05:17:28.767Z,9.73
2024-02-13T05:22:31.060Z,9.10
2024-02-13T05:27:33.459Z,9.38
2024-02-13T05:32:35.819Z,10.18
2024-02-13T05:37:39.013Z,9.98
2024-02-13T05:42:41.527Z,11.25
2024-02-13T05:47:43.826Z,10.25
2024-02-13T05:52:48.763Z,9.80
2024-02-13T05:57:52.065Z,9.77
2024-02-13T06:02:57.412Z,10.35
2024-02-13T06:07:59.668Z,9.85
2024-02-13T06:13:02.119Z,10.20
2024-02-13T06:18:06.001Z,11.25
2024-02-13T06:23:08.470Z,9.95
2024-02-13T06:28:10.810Z,9.90
2024-02-13T06:33:13.830Z,9.80
2024-02-13T06:38:16.961Z,9.35
2024-02-13T06:43:20.009Z,9.80
2024-02-13T06:48:22.267Z,9.63
2024-02-13T06:53:25.115Z,9.43
2024-02-13T06:58:27.304Z,9.95
2024-02-13T07:03:48.202Z,9.82
2024-02-13T07:08:50.571Z,9.38
2024-02-13T07:13:53.158Z,9.90
2024-02-13T07:18:55.527Z,10.32
2024-02-13T07:23:58.248Z,10.48
2024-02-13T07:29:00.553Z,11.05
2024-02-13T07:34:03.212Z,8.93
2024-02-13T07:39:06.408Z,10.65
2024-02-13T07:44:08.938Z,10.32
2024-02-13T07:49:12.081Z,10.15
2024-02-13T07:54:16.177Z,9.15
2024-02-13T07:59:18.575Z,11.15
2024-02-13T08:04:21.114Z,10.63
2024-02-13T08:09:23.372Z,11.45
2024-02-13T08:14:25.641Z,12.18
2024-02-13T08:19:28.012Z,10.77
2024-02-13T08:24:30.576Z,9.68
2024-02-13T08:29:33.192Z,12.00
2024-02-13T08:34:35.859Z,10.90
2024-02-13T08:39:39.835Z,9.55
2024-02-13T08:44:44.385Z,9.43
2024-02-13T08:49:46.803Z,10.77
2024-02-13T08:54:49.215Z,9.10
2024-02-13T08:59:55.949Z,10.80
2024-02-13T09:04:59.216Z,9.27
2024-02-13T09:10:01.558Z,9.98
2024-02-13T09:15:12.786Z,11.23
2024-02-13T09:20:16.498Z,10.45
2024-02-13T09:25:21.277Z,9.57
2024-02-13T09:30:23.530Z,10.45
2024-02-13T09:35:26.022Z,9.90
2024-02-13T09:40:33.943Z,10.20
2024-02-13T09:45:40.679Z,9.68
2024-02-13T09:50:44.884Z,10.60
2024-02-13T09:55:48.041Z,9.40
2024-02-13T10:00:52.360Z,10.25
2024-02-13T10:05:54.846Z,10.10
2024-02-13T10:11:05.274Z,10.20
2024-02-13T10:16:22.339Z,10.53
2024-02-13T10:21:27.770Z,9.55
2024-02-13T10:26:30.589Z,9.30
2024-02-13T10:31:41.562Z,9.85
2024-02-13T10:36:46.707Z,8.27
2024-02-13T10:41:53.021Z,10.30
2024-02-13T10:46:59.370Z,9.45
2024-02-13T10:52:07.082Z,8.85
2024-02-13T10:57:09.907Z,11.10
2024-02-13T11:02:15.887Z,9.85
2024-02-13T11:07:19.714Z,9.05
2024-02-13T11:12:22.786Z,10.00
2024-02-13T11:17:32.490Z,8.60
2024-02-13T11:23:01.072Z,9.02
2024-02-13T11:28:10.277Z,9.98
2024-02-13T11:33:20.331Z,8.60
2024-02-13T11:38:26.582Z,9.57
2024-02-13T11:43:29.702Z,9.18
2024-02-13T11:48:35.295Z,8.65
2024-02-13T11:53:42.194Z,7.00
2024-02-13T11:58:44.486Z,6.88
2024-02-13T12:03:47.279Z,5.65
2024-02-13T12:08:50.168Z,7.53
2024-02-13T12:13:52.492Z,6.50
2024-02-13T12:18:58.983Z,5.60
2024-02-13T12:24:02.990Z,6.03
2024-02-13T12:29:16.684Z,6.22
2024-02-13T12:34:20.462Z,5.60
2024-02-13T12:39:27.068Z,6.43
2024-02-13T12:44:32.208Z,6.72
2024-02-13T12:49:35.450Z,5.78
2024-02-13T12:54:37.688Z,6.93
2024-02-13T12:59:40.152Z,6.28
2024-02-13T13:04:42.930Z,6.78
2024-02-13T13:09:45.675Z,5.82
2024-02-13T13:14:48.523Z,6.60
2024-02-13T13:19:51.099Z,6.50
2024-02-13T13:24:53.712Z,5.80
2024-02-13T13:29:56.047Z,6.32
2024-02-13T13:35:01.732Z,5.93
2024-02-13T13:40:13.663Z,5.45
2024-02-13T13:45:16.145Z,6.57
2024-02-13T13:50:19.181Z,4.82
2024-02-13T13:55:21.982Z,5.75
2024-02-13T14:00:24.734Z,6.10
2024-02-13T14:05:27.019Z,6.35
2024-02-13T14:10:30.343Z,7.22
2024-02-13T14:15:35.613Z,6.57
2024-02-13T14:20:40.846Z,6.53
2024-02-13T14:25:43.232Z,6.80
2024-02-13T14:30:45.603Z,6.78
2024-02-13T14:35:49.017Z,6.55
2024-02-13T14:40:57.257Z,6.93
2024-02-13T14:46:00.702Z,6.25
2024-02-13T14:51:03.233Z,6.10
2024-02-13T14:56:06.615Z,7.03
2024-02-13T15:01:10.789Z,6.18
2024-02-13T15:06:13.887Z,7.18
2024-02-13T15:11:16.448Z,6.40
2024-02-13T15:16:19.588Z,7.13
2024-02-13T15:21:31.246Z,6.55
2024-02-13T15:26:34.635Z,7.43
2024-02-13T15:31:39.624Z,7.05
2024-02-13T15:37:10.840Z,6.40
2024-02-13T15:42:31.970Z,8.40
2024-02-13T15:47:35.395Z,8.95
2024-02-13T15:52:43.952Z,5.05
2024-02-13T15:57:48.369Z,6.63
2024-02-13T16:02:51.443Z,4.15
2024-02-13T16:07:53.724Z,5.07
2024-02-13T16:12:56.987Z,5.90
2024-02-13T16:18:00.816Z,5.07
2024-02-13T16:23:05.984Z,5.25
2024-02-13T16:28:08.370Z,4.70
2024-02-13T16:33:11.113Z,4.13
2024-02-13T16:38:13.518Z,5.03
2024-02-13T16:43:16.773Z,4.53
2024-02-13T16:48:20.642Z,4.93
2024-02-13T16:53:23.195Z,5.05
2024-02-13T16:58:25.831Z,5.97
2024-02-13T17:03:28.088Z,5.32
2024-02-13T17:08:34.674Z,5.43
2024-02-13T17:13:37.446Z,4.78
2024-02-13T17:18:39.805Z,4.70
2024-02-13T17:23:42.130Z,4.88
2024-02-13T17:28:44.415Z,3.67
2024-02-13T17:33:46.830Z,3.85
2024-02-13T17:38:50.502Z,4.75
2024-02-13T17:43:54.380Z,3.60
2024-02-13T17:48:57.828Z,4.35
2024-02-13T17:54:00.171Z,6.40
2024-02-13T17:59:02.859Z,3.88
2024-02-13T18:04:06.356Z,5.13
2024-02-13T18:09:11.623Z,4.07
2024-02-13T18:14:14.059Z,3.53
2024-02-13T18:19:19.760Z,3.70
2024-02-13T18:24:22.205Z,5.05
2024-02-13T18:29:24.699Z,4.10
2024-02-13T18:34:28.272Z,4.65
2024-02-13T18:39:30.654Z,3.10
2024-02-13T18:44:35.242Z,4.10
2024-02-13T18:49:37.726Z,5.10
2024-02-13T18:54:40.146Z,5.13
2024-02-13T18:59:43.468Z,5.07
2024-02-13T19:04:45.747Z,5.55
2024-02-13T19:09:48.056Z,4.03
2024-02-13T19:14:50.372Z,2.63
2024-02-13T19:26:34.979Z,4.00
2024-02-13T19:31:37.974Z,3.78
2024-02-13T19:36:40.655Z,3.50
2024-02-13T19:41:49.197Z,4.57
2024-02-13T19:46:51.492Z,5.38
2024-02-13T19:52:13.927Z,4.90
2024-02-13T19:57:36.099Z,4.35
2024-02-13T20:02:58.407Z,3.38
2024-02-13T20:08:20.995Z,3.83
2024-02-13T20:13:24.207Z,4.10
2024-02-13T20:18:26.565Z,3.97
2024-02-13T20:23:28.998Z,4.28
2024-02-13T20:28:33.331Z,3.35
2024-02-13T20:33:36.741Z,3.40
2024-02-13T20:38:40.230Z,3.33
2024-02-13T20:43:44.970Z,3.28
2024-02-13T20:48:47.770Z,3.83
2024-02-13T20:53:50.652Z,4.82
2024-02-13T20:58:53.178Z,4.22
2024-02-13T21:03:55.792Z,4.35
2024-02-13T21:08:59.035Z,3.88
2024-02-13T21:14:02.160Z,4.80
2024-02-13T21:19:04.634Z,4.72
2024-02-13T21:24:07.817Z,5.25
2024-02-13T21:29:10.394Z,4.10
2024-02-13T21:34:13.376Z,3.92
2024-02-13T21:39:15.805Z,4.00
2024-02-13T21:44:19.759Z,3.92
2024-02-13T21:49:22.705Z,3.65
2024-02-13T21:54:24.964Z,4.95
2024-02-13T21:59:27.329Z,4.10
2024-02-13T22:04:32.679Z,4.07
2024-02-13T22:09:36.441Z,3.55
2024-02-13T22:14:38.689Z,3.78
2024-02-13T22:19:40.986Z,3.95
2024-02-13T22:24:43.395Z,4.07
2024-02-13T22:29:45.724Z,4.05
2024-02-13T22:34:48.786Z,3.72
2024-02-13T22:39:51.059Z,3.10
2024-02-13T22:44:53.328Z,4.18
2024-02-13T22:49:55.606Z,2.20
2024-02-13T22:54:57.829Z,3.28
2024-02-13T23:00:00.552Z,4.18
2024-02-13T23:05:07.460Z,3.83
2024-02-13T23:10:10.349Z,3.05
2024-02-13T23:15:13.059Z,4.00
2024-02-13T23:20:22.923Z,3.05
2024-02-13T23:25:25.288Z,3.47
2024-02-13T23:30:27.848Z,4.90
2024-02-13T23:35:30.214Z,3.97
2024-02-13T23:41:30.085Z,4.22
2024-02-13T23:46:32.603Z,4.10
2024-02-13T23:51:35.834Z,4.00
2024-02-13T23:56:38.209Z,2.63
